sensor_id;sensor_type;location;lat;lon;timestamp;P1;durP1;ratioP1;P2;durP2;ratioP2
38465;SDS011;24244;51.950;5.902;2023-01-08T00:00:06;2.20;;;0.80;;
38465;SDS011;24244;51.950;5.902;2023-01-08T00:02:33;2.25;;;1.10;;
38465;SDS011;24244;51.950;5.902;2023-01-08T00:05:01;2.10;;;1.00;;
38465;SDS011;24244;51.950;5.902;2023-01-08T00:07:28;2.80;;;1.20;;
38465;SDS011;24244;51.950;5.902;2023-01-08T00:09:55;1.92;;;0.85;;
38465;SDS011;24244;51.950;5.902;2023-01-08T00:12:22;2.20;;;0.82;;
38465;SDS011;24244;51.950;5.902;2023-01-08T00:14:48;2.65;;;1.00;;
38465;SDS011;24244;51.950;5.902;2023-01-08T00:17:15;3.78;;;1.55;;
38465;SDS011;24244;51.950;5.902;2023-01-08T00:19:42;4.22;;;1.40;;
38465;SDS011;24244;51.950;5.902;2023-01-08T00:22:12;2.00;;;1.00;;
38465;SDS011;24244;51.950;5.902;2023-01-08T00:24:38;2.22;;;0.85;;
38465;SDS011;24244;51.950;5.902;2023-01-08T00:27:05;2.15;;;1.00;;
38465;SDS011;24244;51.950;5.902;2023-01-08T00:29:32;2.10;;;1.00;;
38465;SDS011;24244;51.950;5.902;2023-01-08T00:31:59;2.10;;;1.00;;
38465;SDS011;24244;51.950;5.902;2023-01-08T00:34:26;2.53;;;1.13;;
38465;SDS011;24244;51.950;5.902;2023-01-08T00:36:52;2.25;;;1.10;;
38465;SDS011;24244;51.950;5.902;2023-01-08T00:39:21;3.15;;;1.20;;
38465;SDS011;24244;51.950;5.902;2023-01-08T00:41:48;2.45;;;1.10;;
38465;SDS011;24244;51.950;5.902;2023-01-08T00:44:14;2.10;;;0.95;;
38465;SDS011;24244;51.950;5.902;2023-01-08T00:46:41;2.13;;;1.17;;
38465;SDS011;24244;51.950;5.902;2023-01-08T00:49:08;2.53;;;0.93;;
38465;SDS011;24244;51.950;5.902;2023-01-08T00:51:35;4.07;;;1.23;;
38465;SDS011;24244;51.950;5.902;2023-01-08T00:54:01;2.58;;;1.25;;
38465;SDS011;24244;51.950;5.902;2023-01-08T00:56:30;2.40;;;1.02;;
38465;SDS011;24244;51.950;5.902;2023-01-08T00:58:57;2.42;;;1.00;;
38465;SDS011;24244;51.950;5.902;2023-01-08T01:01:23;2.92;;;1.23;;
38465;SDS011;24244;51.950;5.902;2023-01-08T01:03:53;2.45;;;0.90;;
38465;SDS011;24244;51.950;5.902;2023-01-08T01:06:20;2.20;;;1.00;;
38465;SDS011;24244;51.950;5.902;2023-01-08T01:08:47;2.75;;;0.77;;
38465;SDS011;24244;51.950;5.902;2023-01-08T01:11:16;2.38;;;1.02;;
38465;SDS011;24244;51.950;5.902;2023-01-08T01:13:45;1.80;;;0.65;;
38465;SDS011;24244;51.950;5.902;2023-01-08T01:16:13;2.15;;;0.90;;
38465;SDS011;24244;51.950;5.902;2023-01-08T01:18:40;2.63;;;0.95;;
38465;SDS011;24244;51.950;5.902;2023-01-08T01:21:10;2.75;;;1.20;;
38465;SDS011;24244;51.950;5.902;2023-01-08T01:23:37;2.65;;;1.13;;
38465;SDS011;24244;51.950;5.902;2023-01-08T01:26:12;2.70;;;1.05;;
38465;SDS011;24244;51.950;5.902;2023-01-08T01:28:40;3.85;;;1.10;;
38465;SDS011;24244;51.950;5.902;2023-01-08T01:31:08;2.78;;;1.00;;
38465;SDS011;24244;51.950;5.902;2023-01-08T01:33:37;3.50;;;0.93;;
38465;SDS011;24244;51.950;5.902;2023-01-08T01:36:04;2.40;;;1.05;;
38465;SDS011;24244;51.950;5.902;2023-01-08T01:38:31;2.13;;;1.00;;
38465;SDS011;24244;51.950;5.902;2023-01-08T01:40:58;2.90;;;1.08;;
38465;SDS011;24244;51.950;5.902;2023-01-08T01:43:32;2.95;;;1.35;;
38465;SDS011;24244;51.950;5.902;2023-01-08T01:46:04;2.97;;;1.00;;
38465;SDS011;24244;51.950;5.902;2023-01-08T01:48:40;3.15;;;0.98;;
38465;SDS011;24244;51.950;5.902;2023-01-08T01:51:07;2.70;;;1.00;;
38465;SDS011;24244;51.950;5.902;2023-01-08T01:53:34;2.70;;;1.02;;
38465;SDS011;24244;51.950;5.902;2023-01-08T01:56:02;2.65;;;1.20;;
38465;SDS011;24244;51.950;5.902;2023-01-08T01:58:30;2.92;;;1.15;;
38465;SDS011;24244;51.950;5.902;2023-01-08T02:00:58;3.00;;;1.23;;
38465;SDS011;24244;51.950;5.902;2023-01-08T02:03:28;3.00;;;1.02;;
38465;SDS011;24244;51.950;5.902;2023-01-08T02:06:01;2.80;;;1.02;;
38465;SDS011;24244;51.950;5.902;2023-01-08T02:08:37;2.90;;;1.08;;
38465;SDS011;24244;51.950;5.902;2023-01-08T02:11:13;4.15;;;1.48;;
38465;SDS011;24244;51.950;5.902;2023-01-08T02:13:47;2.92;;;0.90;;
38465;SDS011;24244;51.950;5.902;2023-01-08T02:16:21;1.55;;;0.70;;
38465;SDS011;24244;51.950;5.902;2023-01-08T02:18:55;2.35;;;0.98;;
38465;SDS011;24244;51.950;5.902;2023-01-08T02:21:28;2.67;;;0.95;;
38465;SDS011;24244;51.950;5.902;2023-01-08T02:24:07;2.03;;;1.05;;
38465;SDS011;24244;51.950;5.902;2023-01-08T02:26:43;2.45;;;1.20;;
38465;SDS011;24244;51.950;5.902;2023-01-08T02:29:13;2.45;;;0.90;;
38465;SDS011;24244;51.950;5.902;2023-01-08T02:31:42;3.10;;;0.80;;
38465;SDS011;24244;51.950;5.902;2023-01-08T02:34:09;2.38;;;1.10;;
38465;SDS011;24244;51.950;5.902;2023-01-08T02:36:38;2.45;;;0.90;;
38465;SDS011;24244;51.950;5.902;2023-01-08T02:39:09;3.47;;;1.00;;
38465;SDS011;24244;51.950;5.902;2023-01-08T02:41:53;3.53;;;1.30;;
38465;SDS011;24244;51.950;5.902;2023-01-08T02:44:32;2.45;;;0.95;;
38465;SDS011;24244;51.950;5.902;2023-01-08T02:47:07;4.45;;;1.30;;
38465;SDS011;24244;51.950;5.902;2023-01-08T02:49:42;2.55;;;1.17;;
38465;SDS011;24244;51.950;5.902;2023-01-08T02:52:11;2.83;;;1.13;;
38465;SDS011;24244;51.950;5.902;2023-01-08T02:54:40;2.00;;;0.90;;
38465;SDS011;24244;51.950;5.902;2023-01-08T02:57:10;3.03;;;1.13;;
38465;SDS011;24244;51.950;5.902;2023-01-08T02:59:40;2.35;;;0.80;;
38465;SDS011;24244;51.950;5.902;2023-01-08T03:02:10;2.92;;;0.80;;
38465;SDS011;24244;51.950;5.902;2023-01-08T03:04:39;1.70;;;0.50;;
38465;SDS011;24244;51.950;5.902;2023-01-08T03:07:18;2.28;;;0.68;;
38465;SDS011;24244;51.950;5.902;2023-01-08T03:09:45;1.60;;;0.50;;
38465;SDS011;24244;51.950;5.902;2023-01-08T03:12:15;1.80;;;0.40;;
38465;SDS011;24244;51.950;5.902;2023-01-08T03:14:49;1.77;;;0.65;;
38465;SDS011;24244;51.950;5.902;2023-01-08T03:17:22;2.30;;;0.82;;
38465;SDS011;24244;51.950;5.902;2023-01-08T03:19:53;2.20;;;0.60;;
38465;SDS011;24244;51.950;5.902;2023-01-08T03:22:21;1.20;;;0.43;;
38465;SDS011;24244;51.950;5.902;2023-01-08T03:24:50;2.08;;;0.30;;
38465;SDS011;24244;51.950;5.902;2023-01-08T03:27:22;1.25;;;0.30;;
38465;SDS011;24244;51.950;5.902;2023-01-08T03:29:54;1.23;;;0.20;;
38465;SDS011;24244;51.950;5.902;2023-01-08T03:32:23;1.55;;;0.30;;
38465;SDS011;24244;51.950;5.902;2023-01-08T03:34:53;1.77;;;0.30;;
38465;SDS011;24244;51.950;5.902;2023-01-08T03:37:23;3.00;;;0.43;;
38465;SDS011;24244;51.950;5.902;2023-01-08T03:39:56;1.38;;;0.32;;
38465;SDS011;24244;51.950;5.902;2023-01-08T03:42:26;1.83;;;0.28;;
38465;SDS011;24244;51.950;5.902;2023-01-08T03:44:56;1.58;;;0.20;;
38465;SDS011;24244;51.950;5.902;2023-01-08T03:47:24;0.90;;;0.28;;
38465;SDS011;24244;51.950;5.902;2023-01-08T03:49:54;0.90;;;0.17;;
38465;SDS011;24244;51.950;5.902;2023-01-08T03:52:23;1.50;;;0.38;;
38465;SDS011;24244;51.950;5.902;2023-01-08T03:54:51;1.13;;;0.20;;
38465;SDS011;24244;51.950;5.902;2023-01-08T03:57:18;1.30;;;0.20;;
38465;SDS011;24244;51.950;5.902;2023-01-08T03:59:46;1.15;;;0.40;;
38465;SDS011;24244;51.950;5.902;2023-01-08T04:02:13;1.30;;;0.17;;
38465;SDS011;24244;51.950;5.902;2023-01-08T04:04:40;1.02;;;0.30;;
38465;SDS011;24244;51.950;5.902;2023-01-08T04:07:08;1.42;;;0.10;;
38465;SDS011;24244;51.950;5.902;2023-01-08T04:09:36;0.85;;;0.20;;
38465;SDS011;24244;51.950;5.902;2023-01-08T04:12:03;2.42;;;0.17;;
38465;SDS011;24244;51.950;5.902;2023-01-08T04:14:30;0.40;;;0.30;;
38465;SDS011;24244;51.950;5.902;2023-01-08T04:16:58;1.58;;;0.15;;
38465;SDS011;24244;51.950;5.902;2023-01-08T04:19:25;1.42;;;0.20;;
38465;SDS011;24244;51.950;5.902;2023-01-08T04:21:52;1.42;;;0.20;;
38465;SDS011;24244;51.950;5.902;2023-01-08T04:24:19;1.90;;;0.30;;
38465;SDS011;24244;51.950;5.902;2023-01-08T04:26:46;1.75;;;0.22;;
38465;SDS011;24244;51.950;5.902;2023-01-08T04:29:13;0.88;;;0.20;;
38465;SDS011;24244;51.950;5.902;2023-01-08T04:31:40;1.08;;;0.30;;
38465;SDS011;24244;51.950;5.902;2023-01-08T04:34:08;2.97;;;0.30;;
38465;SDS011;24244;51.950;5.902;2023-01-08T04:36:35;1.23;;;0.28;;
38465;SDS011;24244;51.950;5.902;2023-01-08T04:39:02;0.70;;;0.05;;
38465;SDS011;24244;51.950;5.902;2023-01-08T04:41:29;0.85;;;0.20;;
38465;SDS011;24244;51.950;5.902;2023-01-08T04:43:55;0.85;;;0.20;;
38465;SDS011;24244;51.950;5.902;2023-01-08T04:46:22;2.10;;;0.13;;
38465;SDS011;24244;51.950;5.902;2023-01-08T04:48:49;2.08;;;0.30;;
38465;SDS011;24244;51.950;5.902;2023-01-08T04:51:17;1.55;;;0.20;;
38465;SDS011;24244;51.950;5.902;2023-01-08T04:53:44;0.88;;;0.30;;
38465;SDS011;24244;51.950;5.902;2023-01-08T04:56:11;1.25;;;0.20;;
38465;SDS011;24244;51.950;5.902;2023-01-08T04:58:38;0.95;;;0.20;;
38465;SDS011;24244;51.950;5.902;2023-01-08T05:01:09;1.50;;;0.40;;
38465;SDS011;24244;51.950;5.902;2023-01-08T05:03:38;0.88;;;0.20;;
38465;SDS011;24244;51.950;5.902;2023-01-08T05:06:05;1.05;;;0.30;;
38465;SDS011;24244;51.950;5.902;2023-01-08T05:08:34;1.33;;;0.20;;
38465;SDS011;24244;51.950;5.902;2023-01-08T05:11:00;2.00;;;0.20;;
38465;SDS011;24244;51.950;5.902;2023-01-08T05:13:27;1.15;;;0.20;;
38465;SDS011;24244;51.950;5.902;2023-01-08T05:15:57;1.75;;;0.30;;
38465;SDS011;24244;51.950;5.902;2023-01-08T05:18:24;0.95;;;0.17;;
38465;SDS011;24244;51.950;5.902;2023-01-08T05:20:52;0.68;;;0.10;;
38465;SDS011;24244;51.950;5.902;2023-01-08T05:23:18;1.77;;;0.10;;
38465;SDS011;24244;51.950;5.902;2023-01-08T05:25:46;0.93;;;0.20;;
38465;SDS011;24244;51.950;5.902;2023-01-08T05:28:13;1.25;;;0.10;;
38465;SDS011;24244;51.950;5.902;2023-01-08T05:30:40;1.92;;;0.30;;
38465;SDS011;24244;51.950;5.902;2023-01-08T05:33:06;1.08;;;0.17;;
38465;SDS011;24244;51.950;5.902;2023-01-08T05:35:33;2.25;;;0.20;;
38465;SDS011;24244;51.950;5.902;2023-01-08T05:38:00;1.25;;;0.20;;
38465;SDS011;24244;51.950;5.902;2023-01-08T05:40:27;0.63;;;0.10;;
38465;SDS011;24244;51.950;5.902;2023-01-08T05:42:57;3.97;;;0.40;;
38465;SDS011;24244;51.950;5.902;2023-01-08T05:45:24;1.77;;;0.35;;
38465;SDS011;24244;51.950;5.902;2023-01-08T05:47:51;1.55;;;0.28;;
38465;SDS011;24244;51.950;5.902;2023-01-08T05:50:17;0.65;;;0.10;;
38465;SDS011;24244;51.950;5.902;2023-01-08T05:55:16;2.97;;;0.40;;
38465;SDS011;24244;51.950;5.902;2023-01-08T05:57:44;2.88;;;0.50;;
38465;SDS011;24244;51.950;5.902;2023-01-08T06:00:13;0.93;;;0.28;;
38465;SDS011;24244;51.950;5.902;2023-01-08T06:02:44;0.98;;;0.30;;
38465;SDS011;24244;51.950;5.902;2023-01-08T06:05:11;0.93;;;0.30;;
38465;SDS011;24244;51.950;5.902;2023-01-08T06:07:38;3.28;;;0.40;;
38465;SDS011;24244;51.950;5.902;2023-01-08T06:10:05;2.17;;;0.40;;
38465;SDS011;24244;51.950;5.902;2023-01-08T06:12:33;1.92;;;0.40;;
38465;SDS011;24244;51.950;5.902;2023-01-08T06:15:00;1.83;;;0.38;;
38465;SDS011;24244;51.950;5.902;2023-01-08T06:17:28;1.85;;;0.30;;
38465;SDS011;24244;51.950;5.902;2023-01-08T06:19:55;2.47;;;0.45;;
38465;SDS011;24244;51.950;5.902;2023-01-08T06:22:21;1.25;;;0.40;;
38465;SDS011;24244;51.950;5.902;2023-01-08T06:24:48;1.33;;;0.30;;
38465;SDS011;24244;51.950;5.902;2023-01-08T06:27:15;1.38;;;0.30;;
38465;SDS011;24244;51.950;5.902;2023-01-08T06:29:44;1.95;;;0.30;;
38465;SDS011;24244;51.950;5.902;2023-01-08T06:32:11;0.98;;;0.20;;
38465;SDS011;24244;51.950;5.902;2023-01-08T06:34:40;1.15;;;0.45;;
38465;SDS011;24244;51.950;5.902;2023-01-08T06:37:07;1.40;;;0.20;;
38465;SDS011;24244;51.950;5.902;2023-01-08T06:39:34;0.95;;;0.20;;
38465;SDS011;24244;51.950;5.902;2023-01-08T06:42:00;0.75;;;0.20;;
38465;SDS011;24244;51.950;5.902;2023-01-08T06:44:27;0.73;;;0.20;;
38465;SDS011;24244;51.950;5.902;2023-01-08T06:46:54;0.68;;;0.15;;
38465;SDS011;24244;51.950;5.902;2023-01-08T06:49:21;1.27;;;0.28;;
38465;SDS011;24244;51.950;5.902;2023-01-08T06:51:49;2.03;;;0.28;;
38465;SDS011;24244;51.950;5.902;2023-01-08T06:54:16;1.50;;;0.30;;
38465;SDS011;24244;51.950;5.902;2023-01-08T06:56:42;2.38;;;0.40;;
38465;SDS011;24244;51.950;5.902;2023-01-08T06:59:19;0.95;;;0.30;;
38465;SDS011;24244;51.950;5.902;2023-01-08T07:01:45;2.80;;;0.50;;
38465;SDS011;24244;51.950;5.902;2023-01-08T07:04:12;1.40;;;0.30;;
38465;SDS011;24244;51.950;5.902;2023-01-08T07:06:39;2.47;;;0.60;;
38465;SDS011;24244;51.950;5.902;2023-01-08T07:09:08;1.52;;;0.32;;
38465;SDS011;24244;51.950;5.902;2023-01-08T07:11:37;2.30;;;0.40;;
38465;SDS011;24244;51.950;5.902;2023-01-08T07:14:04;1.38;;;0.30;;
38465;SDS011;24244;51.950;5.902;2023-01-08T07:16:31;2.25;;;0.30;;
38465;SDS011;24244;51.950;5.902;2023-01-08T07:18:58;1.08;;;0.30;;
38465;SDS011;24244;51.950;5.902;2023-01-08T07:21:24;2.28;;;0.30;;
38465;SDS011;24244;51.950;5.902;2023-01-08T07:23:51;2.17;;;0.30;;
38465;SDS011;24244;51.950;5.902;2023-01-08T07:26:19;1.70;;;0.30;;
38465;SDS011;24244;51.950;5.902;2023-01-08T07:28:46;1.42;;;0.30;;
38465;SDS011;24244;51.950;5.902;2023-01-08T07:31:13;1.27;;;0.40;;
38465;SDS011;24244;51.950;5.902;2023-01-08T07:33:40;2.47;;;0.52;;
38465;SDS011;24244;51.950;5.902;2023-01-08T07:36:07;2.05;;;0.70;;
38465;SDS011;24244;51.950;5.902;2023-01-08T07:38:34;3.03;;;0.65;;
38465;SDS011;24244;51.950;5.902;2023-01-08T07:41:01;1.88;;;0.40;;
38465;SDS011;24244;51.950;5.902;2023-01-08T07:43:29;3.20;;;0.85;;
38465;SDS011;24244;51.950;5.902;2023-01-08T07:45:56;4.45;;;0.50;;
38465;SDS011;24244;51.950;5.902;2023-01-08T07:48:23;1.33;;;0.40;;
38465;SDS011;24244;51.950;5.902;2023-01-08T07:50:50;3.95;;;0.60;;
38465;SDS011;24244;51.950;5.902;2023-01-08T07:53:16;1.63;;;0.40;;
38465;SDS011;24244;51.950;5.902;2023-01-08T07:55:43;2.10;;;0.30;;
38465;SDS011;24244;51.950;5.902;2023-01-08T07:58:12;2.00;;;0.22;;
38465;SDS011;24244;51.950;5.902;2023-01-08T08:00:41;2.17;;;0.55;;
38465;SDS011;24244;51.950;5.902;2023-01-08T08:03:08;2.40;;;0.40;;
38465;SDS011;24244;51.950;5.902;2023-01-08T08:05:37;1.92;;;0.40;;
38465;SDS011;24244;51.950;5.902;2023-01-08T08:08:07;0.90;;;0.20;;
38465;SDS011;24244;51.950;5.902;2023-01-08T08:10:35;1.52;;;0.30;;
38465;SDS011;24244;51.950;5.902;2023-01-08T08:13:02;2.10;;;0.25;;
38465;SDS011;24244;51.950;5.902;2023-01-08T08:15:29;1.10;;;0.25;;
38465;SDS011;24244;51.950;5.902;2023-01-08T08:17:57;2.00;;;0.43;;
38465;SDS011;24244;51.950;5.902;2023-01-08T08:20:24;3.13;;;0.40;;
38465;SDS011;24244;51.950;5.902;2023-01-08T08:22:52;1.40;;;0.30;;
38465;SDS011;24244;51.950;5.902;2023-01-08T08:25:25;2.63;;;0.50;;
38465;SDS011;24244;51.950;5.902;2023-01-08T08:27:54;3.58;;;0.60;;
38465;SDS011;24244;51.950;5.902;2023-01-08T08:30:22;2.78;;;0.40;;
38465;SDS011;24244;51.950;5.902;2023-01-08T08:32:49;2.78;;;0.30;;
38465;SDS011;24244;51.950;5.902;2023-01-08T08:35:17;1.88;;;0.30;;
38465;SDS011;24244;51.950;5.902;2023-01-08T08:37:45;3.42;;;1.20;;
38465;SDS011;24244;51.950;5.902;2023-01-08T08:40:13;2.42;;;0.38;;
38465;SDS011;24244;51.950;5.902;2023-01-08T08:42:39;1.60;;;0.30;;
38465;SDS011;24244;51.950;5.902;2023-01-08T08:45:06;2.45;;;0.55;;
38465;SDS011;24244;51.950;5.902;2023-01-08T08:47:33;2.72;;;0.45;;
38465;SDS011;24244;51.950;5.902;2023-01-08T08:50:00;1.98;;;0.40;;
38465;SDS011;24244;51.950;5.902;2023-01-08T08:52:29;2.13;;;0.47;;
38465;SDS011;24244;51.950;5.902;2023-01-08T08:54:56;1.77;;;0.35;;
38465;SDS011;24244;51.950;5.902;2023-01-08T08:57:23;3.13;;;0.70;;
38465;SDS011;24244;51.950;5.902;2023-01-08T08:59:50;1.50;;;0.50;;
38465;SDS011;24244;51.950;5.902;2023-01-08T09:02:17;1.90;;;0.30;;
38465;SDS011;24244;51.950;5.902;2023-01-08T09:04:44;2.28;;;0.40;;
38465;SDS011;24244;51.950;5.902;2023-01-08T09:07:11;2.72;;;0.50;;
38465;SDS011;24244;51.950;5.902;2023-01-08T09:09:39;2.80;;;0.20;;
38465;SDS011;24244;51.950;5.902;2023-01-08T09:12:06;3.10;;;0.93;;
38465;SDS011;24244;51.950;5.902;2023-01-08T09:14:32;1.65;;;0.30;;
38465;SDS011;24244;51.950;5.902;2023-01-08T09:16:59;3.72;;;0.65;;
38465;SDS011;24244;51.950;5.902;2023-01-08T09:19:26;2.03;;;0.30;;
38465;SDS011;24244;51.950;5.902;2023-01-08T09:21:53;4.07;;;0.43;;
38465;SDS011;24244;51.950;5.902;2023-01-08T09:24:20;1.30;;;0.10;;
38465;SDS011;24244;51.950;5.902;2023-01-08T09:26:48;1.45;;;0.65;;
38465;SDS011;24244;51.950;5.902;2023-01-08T09:29:17;1.08;;;0.32;;
38465;SDS011;24244;51.950;5.902;2023-01-08T09:31:44;0.82;;;0.20;;
38465;SDS011;24244;51.950;5.902;2023-01-08T09:34:12;3.55;;;0.50;;
38465;SDS011;24244;51.950;5.902;2023-01-08T09:36:38;3.35;;;0.60;;
38465;SDS011;24244;51.950;5.902;2023-01-08T09:39:05;5.47;;;0.40;;
38465;SDS011;24244;51.950;5.902;2023-01-08T09:41:32;1.45;;;0.40;;
38465;SDS011;24244;51.950;5.902;2023-01-08T09:44:05;3.05;;;0.82;;
38465;SDS011;24244;51.950;5.902;2023-01-08T09:46:32;3.58;;;0.63;;
38465;SDS011;24244;51.950;5.902;2023-01-08T09:49:00;3.85;;;0.50;;
38465;SDS011;24244;51.950;5.902;2023-01-08T09:51:32;1.58;;;0.25;;
38465;SDS011;24244;51.950;5.902;2023-01-08T09:54:00;2.28;;;0.40;;
38465;SDS011;24244;51.950;5.902;2023-01-08T09:56:28;2.83;;;0.40;;
38465;SDS011;24244;51.950;5.902;2023-01-08T09:58:55;3.05;;;0.57;;
38465;SDS011;24244;51.950;5.902;2023-01-08T10:01:26;5.80;;;0.80;;
38465;SDS011;24244;51.950;5.902;2023-01-08T10:03:57;6.03;;;0.98;;
38465;SDS011;24244;51.950;5.902;2023-01-08T10:06:29;3.17;;;0.40;;
38465;SDS011;24244;51.950;5.902;2023-01-08T10:08:56;2.05;;;0.35;;
38465;SDS011;24244;51.950;5.902;2023-01-08T10:11:24;2.22;;;0.30;;
38465;SDS011;24244;51.950;5.902;2023-01-08T10:13:56;2.95;;;0.50;;
38465;SDS011;24244;51.950;5.902;2023-01-08T10:16:26;2.38;;;0.40;;
38465;SDS011;24244;51.950;5.902;2023-01-08T10:18:56;1.75;;;0.60;;
38465;SDS011;24244;51.950;5.902;2023-01-08T10:21:25;3.30;;;0.70;;
38465;SDS011;24244;51.950;5.902;2023-01-08T10:23:55;1.48;;;0.30;;
38465;SDS011;24244;51.950;5.902;2023-01-08T10:26:28;3.95;;;0.45;;
38465;SDS011;24244;51.950;5.902;2023-01-08T10:29:06;2.85;;;0.60;;
38465;SDS011;24244;51.950;5.902;2023-01-08T10:31:48;2.92;;;0.60;;
38465;SDS011;24244;51.950;5.902;2023-01-08T10:34:23;2.15;;;0.50;;
38465;SDS011;24244;51.950;5.902;2023-01-08T10:36:52;3.70;;;0.70;;
38465;SDS011;24244;51.950;5.902;2023-01-08T10:39:22;2.10;;;0.50;;
38465;SDS011;24244;51.950;5.902;2023-01-08T10:41:52;3.67;;;0.60;;
38465;SDS011;24244;51.950;5.902;2023-01-08T10:44:23;2.90;;;0.88;;
38465;SDS011;24244;51.950;5.902;2023-01-08T10:46:54;2.47;;;0.60;;
38465;SDS011;24244;51.950;5.902;2023-01-08T10:49:26;2.50;;;0.60;;
38465;SDS011;24244;51.950;5.902;2023-01-08T10:51:57;3.35;;;0.80;;
38465;SDS011;24244;51.950;5.902;2023-01-08T10:54:31;1.98;;;0.85;;
38465;SDS011;24244;51.950;5.902;2023-01-08T10:57:00;3.28;;;0.82;;
38465;SDS011;24244;51.950;5.902;2023-01-08T10:59:28;2.78;;;0.57;;
38465;SDS011;24244;51.950;5.902;2023-01-08T11:01:57;3.92;;;0.50;;
38465;SDS011;24244;51.950;5.902;2023-01-08T11:04:29;3.60;;;0.90;;
38465;SDS011;24244;51.950;5.902;2023-01-08T11:06:59;2.47;;;0.70;;
38465;SDS011;24244;51.950;5.902;2023-01-08T11:09:28;2.28;;;0.45;;
38465;SDS011;24244;51.950;5.902;2023-01-08T11:11:57;3.80;;;1.25;;
38465;SDS011;24244;51.950;5.902;2023-01-08T11:14:27;2.55;;;0.98;;
38465;SDS011;24244;51.950;5.902;2023-01-08T11:16:57;2.08;;;0.60;;
38465;SDS011;24244;51.950;5.902;2023-01-08T11:19:25;1.50;;;0.47;;
38465;SDS011;24244;51.950;5.902;2023-01-08T11:21:54;2.33;;;0.70;;
38465;SDS011;24244;51.950;5.902;2023-01-08T11:24:23;4.15;;;0.90;;
38465;SDS011;24244;51.950;5.902;2023-01-08T11:26:52;2.97;;;0.60;;
38465;SDS011;24244;51.950;5.902;2023-01-08T11:29:24;1.67;;;0.40;;
38465;SDS011;24244;51.950;5.902;2023-01-08T11:32:02;3.80;;;0.40;;
38465;SDS011;24244;51.950;5.902;2023-01-08T11:34:43;1.70;;;0.70;;
38465;SDS011;24244;51.950;5.902;2023-01-08T11:37:20;2.47;;;0.68;;
38465;SDS011;24244;51.950;5.902;2023-01-08T11:39:50;2.15;;;0.45;;
38465;SDS011;24244;51.950;5.902;2023-01-08T11:42:19;2.10;;;0.60;;
38465;SDS011;24244;51.950;5.902;2023-01-08T11:45:13;1.83;;;0.52;;
38465;SDS011;24244;51.950;5.902;2023-01-08T11:48:06;1.60;;;0.43;;
38465;SDS011;24244;51.950;5.902;2023-01-08T11:51:03;1.23;;;0.32;;
38465;SDS011;24244;51.950;5.902;2023-01-08T11:53:42;1.85;;;0.40;;
38465;SDS011;24244;51.950;5.902;2023-01-08T11:56:16;2.67;;;0.57;;
38465;SDS011;24244;51.950;5.902;2023-01-08T11:58:53;1.85;;;0.43;;
38465;SDS011;24244;51.950;5.902;2023-01-08T12:01:37;1.77;;;0.55;;
38465;SDS011;24244;51.950;5.902;2023-01-08T12:04:26;1.25;;;0.50;;
38465;SDS011;24244;51.950;5.902;2023-01-08T12:07:09;1.35;;;0.22;;
38465;SDS011;24244;51.950;5.902;2023-01-08T12:09:42;0.85;;;0.20;;
38465;SDS011;24244;51.950;5.902;2023-01-08T12:12:18;0.93;;;0.20;;
38465;SDS011;24244;51.950;5.902;2023-01-08T12:15:00;1.60;;;0.25;;
38465;SDS011;24244;51.950;5.902;2023-01-08T12:17:43;0.47;;;0.20;;
38465;SDS011;24244;51.950;5.902;2023-01-08T12:20:31;2.40;;;0.28;;
38465;SDS011;24244;51.950;5.902;2023-01-08T12:23:10;1.40;;;0.15;;
38465;SDS011;24244;51.950;5.902;2023-01-08T12:25:52;1.73;;;0.28;;
38465;SDS011;24244;51.950;5.902;2023-01-08T12:28:35;1.45;;;0.30;;
38465;SDS011;24244;51.950;5.902;2023-01-08T12:31:17;1.85;;;0.63;;
38465;SDS011;24244;51.950;5.902;2023-01-08T12:33:53;0.60;;;0.10;;
38465;SDS011;24244;51.950;5.902;2023-01-08T12:36:24;0.90;;;0.30;;
38465;SDS011;24244;51.950;5.902;2023-01-08T12:38:57;2.20;;;0.40;;
38465;SDS011;24244;51.950;5.902;2023-01-08T12:41:29;1.08;;;0.20;;
38465;SDS011;24244;51.950;5.902;2023-01-08T12:43:59;0.95;;;0.30;;
38465;SDS011;24244;51.950;5.902;2023-01-08T12:46:29;0.20;;;0.00;;
38465;SDS011;24244;51.950;5.902;2023-01-08T12:49:00;1.10;;;0.30;;
38465;SDS011;24244;51.950;5.902;2023-01-08T12:51:33;1.80;;;0.40;;
38465;SDS011;24244;51.950;5.902;2023-01-08T12:54:06;1.15;;;0.30;;
38465;SDS011;24244;51.950;5.902;2023-01-08T12:56:42;0.85;;;0.20;;
38465;SDS011;24244;51.950;5.902;2023-01-08T12:59:22;1.63;;;0.20;;
38465;SDS011;24244;51.950;5.902;2023-01-08T13:01:56;1.77;;;0.32;;
38465;SDS011;24244;51.950;5.902;2023-01-08T13:04:37;1.13;;;0.22;;
38465;SDS011;24244;51.950;5.902;2023-01-08T13:07:10;0.55;;;0.20;;
38465;SDS011;24244;51.950;5.902;2023-01-08T13:09:43;1.00;;;0.43;;
38465;SDS011;24244;51.950;5.902;2023-01-08T13:12:11;1.42;;;0.10;;
38465;SDS011;24244;51.950;5.902;2023-01-08T13:14:40;3.10;;;0.50;;
38465;SDS011;24244;51.950;5.902;2023-01-08T13:17:14;0.90;;;0.32;;
38465;SDS011;24244;51.950;5.902;2023-01-08T13:19:44;0.60;;;0.40;;
38465;SDS011;24244;51.950;5.902;2023-01-08T13:22:23;0.90;;;0.30;;
38465;SDS011;24244;51.950;5.902;2023-01-08T13:25:06;2.90;;;0.40;;
38465;SDS011;24244;51.950;5.902;2023-01-08T13:27:35;0.80;;;0.20;;
38465;SDS011;24244;51.950;5.902;2023-01-08T13:33:00;0.82;;;0.30;;
38465;SDS011;24244;51.950;5.902;2023-01-08T13:35:28;2.13;;;1.30;;
38465;SDS011;24244;51.950;5.902;2023-01-08T13:38:14;1.27;;;0.30;;
38465;SDS011;24244;51.950;5.902;2023-01-08T13:40:49;1.25;;;0.30;;
38465;SDS011;24244;51.950;5.902;2023-01-08T13:43:22;1.20;;;0.30;;
38465;SDS011;24244;51.950;5.902;2023-01-08T13:46:02;1.67;;;0.20;;
38465;SDS011;24244;51.950;5.902;2023-01-08T13:48:35;1.55;;;0.30;;
38465;SDS011;24244;51.950;5.902;2023-01-08T13:51:04;1.63;;;0.38;;
38465;SDS011;24244;51.950;5.902;2023-01-08T13:53:33;1.60;;;0.20;;
38465;SDS011;24244;51.950;5.902;2023-01-08T13:56:01;2.22;;;0.40;;
38465;SDS011;24244;51.950;5.902;2023-01-08T13:58:32;1.23;;;0.50;;
38465;SDS011;24244;51.950;5.902;2023-01-08T14:01:03;3.15;;;0.52;;
38465;SDS011;24244;51.950;5.902;2023-01-08T14:03:32;1.00;;;0.35;;
38465;SDS011;24244;51.950;5.902;2023-01-08T14:06:05;1.35;;;0.35;;
38465;SDS011;24244;51.950;5.902;2023-01-08T14:08:35;2.47;;;0.60;;
38465;SDS011;24244;51.950;5.902;2023-01-08T14:11:02;1.83;;;0.50;;
38465;SDS011;24244;51.950;5.902;2023-01-08T14:13:30;1.50;;;0.30;;
38465;SDS011;24244;51.950;5.902;2023-01-08T14:16:01;1.35;;;0.38;;
38465;SDS011;24244;51.950;5.902;2023-01-08T14:18:30;1.77;;;0.28;;
38465;SDS011;24244;51.950;5.902;2023-01-08T14:20:58;0.85;;;0.32;;
38465;SDS011;24244;51.950;5.902;2023-01-08T14:23:25;3.20;;;0.50;;
38465;SDS011;24244;51.950;5.902;2023-01-08T14:25:57;2.15;;;0.30;;
38465;SDS011;24244;51.950;5.902;2023-01-08T14:28:27;0.47;;;0.20;;
38465;SDS011;24244;51.950;5.902;2023-01-08T14:30:55;2.65;;;0.50;;
38465;SDS011;24244;51.950;5.902;2023-01-08T14:33:22;1.98;;;0.40;;
38465;SDS011;24244;51.950;5.902;2023-01-08T14:35:54;1.33;;;0.35;;
38465;SDS011;24244;51.950;5.902;2023-01-08T14:38:21;2.22;;;0.30;;
38465;SDS011;24244;51.950;5.902;2023-01-08T14:40:49;1.50;;;0.30;;
38465;SDS011;24244;51.950;5.902;2023-01-08T14:43:24;2.15;;;0.20;;
38465;SDS011;24244;51.950;5.902;2023-01-08T14:45:51;1.52;;;0.43;;
38465;SDS011;24244;51.950;5.902;2023-01-08T14:48:21;4.95;;;1.02;;
38465;SDS011;24244;51.950;5.902;2023-01-08T14:51:00;2.08;;;0.30;;
38465;SDS011;24244;51.950;5.902;2023-01-08T14:53:31;3.28;;;0.65;;
38465;SDS011;24244;51.950;5.902;2023-01-08T14:56:00;1.00;;;0.30;;
38465;SDS011;24244;51.950;5.902;2023-01-08T14:58:34;1.73;;;0.40;;
38465;SDS011;24244;51.950;5.902;2023-01-08T15:01:05;0.98;;;0.38;;
38465;SDS011;24244;51.950;5.902;2023-01-08T15:03:35;1.05;;;0.10;;
38465;SDS011;24244;51.950;5.902;2023-01-08T15:06:03;0.82;;;0.25;;
38465;SDS011;24244;51.950;5.902;2023-01-08T15:08:32;1.20;;;0.30;;